createdAt,value
2023-03-26T00:01:47.461Z,97940.50
2023-03-26T00:04:14.919Z,97944.22
2023-03-26T00:06:42.215Z,97941.22
2023-03-26T00:09:13.752Z,97941.72
2023-03-26T00:11:41.622Z,97940.88
2023-03-26T00:14:14.267Z,97937.63
2023-03-26T00:16:44.087Z,97937.38
2023-03-26T00:19:12.855Z,97939.69
2023-03-26T00:21:40.320Z,97940.03
2023-03-26T00:24:16.442Z,97944.13
2023-03-26T00:26:45.090Z,97933.91
2023-03-26T00:29:14.085Z,97932.09
2023-03-26T00:31:41.485Z,97940.03
2023-03-26T00:34:10.907Z,97937.28
2023-03-26T00:36:38.570Z,97939.22
2023-03-26T00:39:06.621Z,97938.00
2023-03-26T00:41:37.485Z,97937.63
2023-03-26T00:44:05.307Z,97953.31
2023-03-26T00:46:33.100Z,97956.78
2023-03-26T00:49:02.205Z,97963.78
2023-03-26T00:51:30.302Z,97963.03
2023-03-26T00:53:58.429Z,97980.00
2023-03-26T00:56:26.449Z,97987.22
2023-03-26T00:58:53.992Z,97993.13
2023-03-26T01:01:28.629Z,98001.53
2023-03-26T01:06:33.135Z,98004.72
2023-03-26T01:09:13.001Z,98003.94
2023-03-26T01:11:40.446Z,98008.75
2023-03-26T01:14:16.500Z,98012.09
2023-03-26T01:16:46.680Z,98008.09
2023-03-26T01:19:29.960Z,98015.84
2023-03-26T01:21:59.447Z,98014.06
2023-03-26T01:24:27.069Z,98018.47
2023-03-26T01:27:00.900Z,98013.59
2023-03-26T01:29:48.660Z,98010.13
2023-03-26T01:32:40.390Z,98026.00
2023-03-26T01:35:39.244Z,98040.78
2023-03-26T01:38:19.014Z,98037.09
2023-03-26T01:41:21.263Z,98042.47
2023-03-26T01:44:03.462Z,98042.59
2023-03-26T01:46:36.630Z,98042.38
2023-03-26T01:49:13.524Z,98048.41
2023-03-26T01:51:42.966Z,98058.44
2023-03-26T01:54:19.186Z,98055.91
2023-03-26T01:57:21.267Z,98037.28
2023-03-26T02:00:25.181Z,98049.56
2023-03-26T02:02:55.882Z,98051.44
2023-03-26T02:05:32.287Z,98054.19
2023-03-26T02:08:21.310Z,98055.28
2023-03-26T02:10:56.130Z,98050.09
2023-03-26T02:13:24.620Z,98069.94
2023-03-26T02:16:00.492Z,98060.66
2023-03-26T02:18:36.736Z,98064.66
2023-03-26T02:21:12.501Z,98062.78
2023-03-26T02:23:47.257Z,98084.25
2023-03-26T02:26:18.217Z,98092.28
2023-03-26T02:29:13.657Z,98081.28
2023-03-26T02:31:43.613Z,98090.25
2023-03-26T02:34:11.756Z,98077.03
2023-03-26T02:36:45.868Z,98087.69
2023-03-26T02:39:14.817Z,98096.25
2023-03-26T02:41:48.089Z,98093.59
2023-03-26T02:44:15.736Z,98103.84
2023-03-26T02:46:58.247Z,98105.75
2023-03-26T02:49:48.676Z,98120.53
2023-03-26T02:52:39.476Z,98117.91
2023-03-26T02:55:08.096Z,98116.94
2023-03-26T02:57:36.910Z,98129.84
2023-03-26T03:00:22.310Z,98140.50
2023-03-26T03:03:09.830Z,98136.28
2023-03-26T03:05:57.693Z,98142.84
2023-03-26T03:08:31.098Z,98148.25
2023-03-26T03:11:27.216Z,98144.66
2023-03-26T03:13:55.523Z,98141.91
2023-03-26T03:16:26.045Z,98140.50
2023-03-26T03:18:58.063Z,98144.31
2023-03-26T03:21:37.189Z,98151.03
2023-03-26T03:24:05.308Z,98155.31
2023-03-26T03:26:36.651Z,98151.56
2023-03-26T03:29:30.764Z,98161.22
2023-03-26T03:32:06.225Z,98170.56
2023-03-26T03:34:45.383Z,98172.53
2023-03-26T03:37:12.970Z,98179.72
2023-03-26T03:39:49.345Z,98186.44
2023-03-26T03:42:20.236Z,98191.88
2023-03-26T03:44:49.702Z,98191.44
2023-03-26T03:47:39.922Z,98191.72
2023-03-26T03:50:08.649Z,98201.38
2023-03-26T03:52:37.398Z,98206.47
2023-03-26T03:55:05.812Z,98205.81
2023-03-26T03:57:43.752Z,98206.25
2023-03-26T04:00:17.645Z,98209.16
2023-03-26T04:03:06.736Z,98205.28
2023-03-26T04:05:35.262Z,98208.38
2023-03-26T04:08:02.679Z,98200.06
2023-03-26T04:10:59.760Z,98201.13
2023-03-26T04:13:47.534Z,98206.88
2023-03-26T04:16:29.744Z,98212.09
2023-03-26T04:18:58.760Z,98217.19
2023-03-26T04:21:30.946Z,98220.16
2023-03-26T04:24:02.301Z,98216.00
2023-03-26T04:26:53.742Z,98221.69
2023-03-26T04:29:30.830Z,98233.28
2023-03-26T04:31:59.541Z,98236.16
2023-03-26T04:34:30.171Z,98237.88
2023-03-26T04:37:07.644Z,98243.13
2023-03-26T04:39:41.993Z,98241.16
2023-03-26T04:42:33.676Z,98242.09
2023-03-26T04:45:11.681Z,98232.94
2023-03-26T04:47:41.986Z,98237.66
2023-03-26T04:50:10.746Z,98247.75
2023-03-26T04:52:40.566Z,98251.75
2023-03-26T04:55:37.298Z,98250.09
2023-03-26T04:58:14.446Z,98246.91
2023-03-26T05:01:10.429Z,98254.72
2023-03-26T05:03:42.051Z,98253.41
2023-03-26T05:06:14.073Z,98252.50
2023-03-26T05:08:42.456Z,98260.38
2023-03-26T05:11:17.908Z,98253.44
2023-03-26T05:13:45.792Z,98253.09
2023-03-26T05:16:18.644Z,98252.13
2023-03-26T05:18:56.765Z,98262.81
2023-03-26T05:21:28.531Z,98256.06
2023-03-26T05:23:56.141Z,98252.56
2023-03-26T05:26:23.915Z,98257.94
2023-03-26T05:28:52.759Z,98254.81
2023-03-26T05:31:35.943Z,98257.16
2023-03-26T05:34:04.346Z,98260.19
2023-03-26T05:36:32.346Z,98258.22
2023-03-26T05:39:27.266Z,98257.41
2023-03-26T05:42:03.790Z,98254.94
2023-03-26T05:44:50.193Z,98260.19
2023-03-26T05:47:23.916Z,98268.47
2023-03-26T05:49:51.912Z,98263.16
2023-03-26T05:52:19.561Z,98262.97
2023-03-26T05:55:10.944Z,98256.53
2023-03-26T05:58:00.192Z,98263.56
2023-03-26T06:00:49.284Z,98262.69
2023-03-26T06:03:29.094Z,98261.09
2023-03-26T06:06:18.219Z,98260.09
2023-03-26T06:09:01.158Z,98252.38
2023-03-26T06:11:32.814Z,98255.53
2023-03-26T06:14:02.567Z,98243.91
2023-03-26T06:16:31.285Z,98245.53
2023-03-26T06:19:17.909Z,98239.34
2023-03-26T06:22:03.982Z,98237.22
2023-03-26T06:24:44.368Z,98234.38
2023-03-26T06:27:39.569Z,98244.19
2023-03-26T06:30:45.135Z,98232.38
2023-03-26T06:33:46.476Z,98242.38
2023-03-26T06:36:14.880Z,98239.25
2023-03-26T06:38:42.742Z,98234.81
2023-03-26T06:41:10.569Z,98246.00
2023-03-26T06:43:39.542Z,98246.16
2023-03-26T06:46:25.970Z,98232.41
2023-03-26T06:49:17.480Z,98242.88
2023-03-26T06:52:13.606Z,98241.66
2023-03-26T06:55:02.123Z,98249.38
2023-03-26T06:58:06.949Z,98247.63
2023-03-26T07:00:37.490Z,98248.03
2023-03-26T07:03:23.630Z,98246.25
2023-03-26T07:06:20.661Z,98241.41
2023-03-26T07:09:07.490Z,98244.50
2023-03-26T07:11:53.771Z,98254.97
2023-03-26T07:15:00.357Z,98248.47
2023-03-26T07:17:37.480Z,98244.69
2023-03-26T07:20:13.657Z,98241.41
2023-03-26T07:22:42.599Z,98232.56
2023-03-26T07:25:18.209Z,98247.19
2023-03-26T07:28:18.787Z,98251.81
2023-03-26T07:31:25.588Z,98257.75
2023-03-26T07:34:39.578Z,98250.84
2023-03-26T07:37:36.595Z,98265.22
2023-03-26T07:40:50.050Z,98276.41
2023-03-26T07:43:45.959Z,98270.97
2023-03-26T07:46:38.007Z,98279.81
2023-03-26T07:49:25.376Z,98278.47
2023-03-26T07:52:12.283Z,98287.56
2023-03-26T07:54:49.442Z,98270.78
2023-03-26T07:57:44.689Z,98268.41
2023-03-26T08:00:45.518Z,98266.66
2023-03-26T08:03:17.440Z,98266.75
2023-03-26T08:06:11.216Z,98267.59
2023-03-26T08:09:00.561Z,98263.88
2023-03-26T08:12:14.638Z,98270.63
2023-03-26T08:15:29.908Z,98265.75
2023-03-26T08:18:16.585Z,98267.75
2023-03-26T08:20:49.856Z,98272.84
2023-03-26T08:23:50.662Z,98271.06
2023-03-26T08:26:34.660Z,98284.03
2023-03-26T08:29:14.124Z,98277.22
2023-03-26T08:31:45.160Z,98290.97
2023-03-26T08:34:14.139Z,98286.34
2023-03-26T08:36:41.853Z,98289.69
2023-03-26T08:39:09.440Z,98297.03
2023-03-26T08:42:03.314Z,98291.75
2023-03-26T08:45:08.237Z,98288.13
2023-03-26T08:47:50.028Z,98291.09
2023-03-26T08:50:32.984Z,98296.84
2023-03-26T08:53:00.154Z,98291.72
2023-03-26T08:56:12.617Z,98296.91
2023-03-26T08:59:08.984Z,98303.75
2023-03-26T09:01:52.059Z,98284.31
2023-03-26T09:04:52.583Z,98286.28
2023-03-26T09:07:54.031Z,98287.44
2023-03-26T09:10:40.636Z,98300.34
2023-03-26T09:13:26.531Z,98295.28
2023-03-26T09:16:42.444Z,98288.66
2023-03-26T09:19:22.267Z,98284.88
2023-03-26T09:22:01.816Z,98283.19
2023-03-26T09:25:00.500Z,98289.50
2023-03-26T09:27:46.326Z,98288.69
2023-03-26T09:30:40.002Z,98293.69
2023-03-26T09:33:32.527Z,98294.81
2023-03-26T09:36:19.751Z,98300.53
2023-03-26T09:39:13.175Z,98302.81
2023-03-26T09:42:05.786Z,98303.88
2023-03-26T09:45:01.602Z,98296.88
2023-03-26T09:47:49.936Z,98291.16
2023-03-26T09:50:30.220Z,98287.69
2023-03-26T09:53:00.680Z,98284.72
2023-03-26T09:59:05.386Z,98279.16
2023-03-26T10:02:04.619Z,98283.22
2023-03-26T10:04:38.202Z,98275.22
2023-03-26T10:07:30.404Z,98282.16
2023-03-26T10:10:26.961Z,98278.72
2023-03-26T10:13:15.833Z,98275.28
2023-03-26T10:16:05.335Z,98271.22
2023-03-26T10:19:08.173Z,98264.63
2023-03-26T10:21:56.946Z,98273.53
2023-03-26T10:24:34.920Z,98260.75
2023-03-26T10:27:11.594Z,98260.69
2023-03-26T10:29:58.066Z,98263.69
2023-03-26T10:32:52.492Z,98259.53
2023-03-26T10:35:25.453Z,98265.06
2023-03-26T10:38:19.523Z,98265.00
2023-03-26T10:41:04.946Z,98265.97
2023-03-26T10:44:05.283Z,98269.03
2023-03-26T10:46:45.092Z,98263.81
2023-03-26T10:49:31.186Z,98264.38
2023-03-26T10:52:06.980Z,98262.84
2023-03-26T10:54:47.258Z,98263.53
2023-03-26T10:57:54.597Z,98263.06
2023-03-26T11:00:27.334Z,98252.31
2023-03-26T11:03:04.336Z,98247.34
2023-03-26T11:06:04.535Z,98244.56
2023-03-26T11:08:47.267Z,98243.41
2023-03-26T11:11:38.889Z,98250.50
2023-03-26T11:14:51.653Z,98249.28
2023-03-26T11:17:56.457Z,98244.41
2023-03-26T11:20:55.926Z,98250.16
2023-03-26T11:23:43.503Z,98247.66
2023-03-26T11:26:22.613Z,98246.31
2023-03-26T11:29:31.751Z,98246.31
2023-03-26T11:32:14.787Z,98245.72
2023-03-26T11:35:06.844Z,98239.00
2023-03-26T11:37:49.233Z,98233.72
2023-03-26T11:40:33.027Z,98232.03
2023-03-26T11:43:02.679Z,98226.91
2023-03-26T11:45:38.211Z,98220.72
2023-03-26T11:48:19.485Z,98226.59
2023-03-26T11:50:49.685Z,98221.03
2023-03-26T11:53:19.021Z,98231.63
2023-03-26T11:56:09.543Z,98232.47
2023-03-26T11:58:43.786Z,98222.69
2023-03-26T12:01:17.709Z,98230.78
2023-03-26T12:03:55.971Z,98231.72
2023-03-26T12:06:27.769Z,98226.06
2023-03-26T12:08:55.584Z,98216.81
2023-03-26T12:11:33.887Z,98209.56
2023-03-26T12:14:04.670Z,98219.34
2023-03-26T12:16:31.972Z,98214.19
2023-03-26T12:19:07.682Z,98210.13
2023-03-26T12:22:04.341Z,98211.25
2023-03-26T12:24:33.893Z,98205.75
2023-03-26T12:27:21.246Z,98208.91
2023-03-26T12:30:07.314Z,98202.06
2023-03-26T12:32:46.184Z,98200.31
2023-03-26T12:35:25.169Z,98201.59
2023-03-26T12:37:53.040Z,98197.78
2023-03-26T12:40:36.026Z,98190.22
2023-03-26T12:44:47.107Z,98199.25
2023-03-26T12:47:54.422Z,98196.38
2023-03-26T12:48:44.174Z,98190.91
2023-03-26T12:51:20.439Z,98185.22
2023-03-26T12:53:53.800Z,98196.53
2023-03-26T12:56:44.429Z,98189.78
2023-03-26T12:59:12.145Z,98190.94
2023-03-26T13:01:42.180Z,98193.06
2023-03-26T13:04:12.808Z,98191.00
2023-03-26T13:06:59.325Z,98191.00
2023-03-26T13:09:33.858Z,98194.97
2023-03-26T13:12:17.769Z,98191.97
2023-03-26T13:15:04.111Z,98191.94
2023-03-26T13:17:40.560Z,98193.41
2023-03-26T13:20:16.320Z,98194.59
2023-03-26T13:22:52.824Z,98202.16
2023-03-26T13:25:20.069Z,98207.06
2023-03-26T13:28:00.137Z,98210.13
2023-03-26T13:30:50.344Z,98221.09
2023-03-26T13:33:27.700Z,98219.31
2023-03-26T13:36:23.223Z,98222.75
2023-03-26T13:39:05.312Z,98224.44
2023-03-26T13:41:48.372Z,98217.84
2023-03-26T13:44:23.510Z,98213.63
2023-03-26T13:46:55.975Z,98222.38
2023-03-26T13:49:26.159Z,98227.16
2023-03-26T13:51:56.765Z,98220.56
2023-03-26T13:54:24.216Z,98221.28
2023-03-26T13:56:55.457Z,98220.63
2023-03-26T13:59:29.690Z,98209.72
2023-03-26T14:02:01.442Z,98210.09
2023-03-26T14:06:42.570Z,98204.88
2023-03-26T14:09:23.148Z,98206.69
2023-03-26T14:11:50.694Z,98202.56
2023-03-26T14:14:43.875Z,98199.91
2023-03-26T14:17:23.337Z,98188.50
2023-03-26T14:20:10.046Z,98194.88
2023-03-26T14:22:52.720Z,98193.97
2023-03-26T14:25:20.267Z,98195.47
2023-03-26T14:27:56.874Z,98195.13
2023-03-26T14:30:33.515Z,98196.22
2023-03-26T14:33:27.332Z,98196.28
2023-03-26T14:36:15.927Z,98191.56
2023-03-26T14:39:12.652Z,98198.75
2023-03-26T14:41:48.352Z,98199.03
2023-03-26T14:44:31.172Z,98202.66
2023-03-26T14:47:16.348Z,98209.31
2023-03-26T14:49:44.312Z,98213.47
2023-03-26T14:52:12.093Z,98212.47
2023-03-26T14:54:42.250Z,98216.47
2023-03-26T14:57:23.298Z,98209.22
2023-03-26T15:00:17.048Z,98210.78
2023-03-26T15:02:54.567Z,98209.19
2023-03-26T15:05:22.452Z,98210.97
2023-03-26T15:08:04.805Z,98212.69
2023-03-26T15:10:51.603Z,98216.59
2023-03-26T15:13:37.444Z,98205.84
2023-03-26T15:16:12.098Z,98211.97
2023-03-26T15:18:50.224Z,98221.03
2023-03-26T15:21:37.201Z,98218.50
2023-03-26T15:24:16.290Z,98226.38
2023-03-26T15:27:02.279Z,98224.94
2023-03-26T15:29:35.884Z,98220.47
2023-03-26T15:32:03.380Z,98220.81
2023-03-26T15:34:48.881Z,98224.78
2023-03-26T15:37:22.825Z,98229.34
2023-03-26T15:40:10.194Z,98230.16
2023-03-26T15:42:45.075Z,98233.78
2023-03-26T15:45:34.229Z,98231.19
2023-03-26T15:48:11.513Z,98231.88
2023-03-26T15:51:00.345Z,98234.81
2023-03-26T15:53:45.888Z,98241.00
2023-03-26T15:56:13.359Z,98250.72
2023-03-26T15:58:47.000Z,98256.44
2023-03-26T16:01:20.552Z,98265.34
2023-03-26T16:04:06.925Z,98260.59
2023-03-26T16:06:41.667Z,98254.84
2023-03-26T16:09:24.422Z,98280.94
2023-03-26T16:11:59.154Z,98282.22
2023-03-26T16:14:35.661Z,98283.41
2023-03-26T16:17:07.047Z,98284.38
2023-03-26T16:19:41.440Z,98281.00
2023-03-26T16:22:14.418Z,98285.19
2023-03-26T16:24:47.117Z,98288.47
2023-03-26T16:27:14.925Z,98290.91
2023-03-26T16:30:00.315Z,98296.28
2023-03-26T16:32:30.289Z,98283.78
2023-03-26T16:35:05.563Z,98284.41
2023-03-26T16:37:38.581Z,98282.34
2023-03-26T16:40:18.756Z,98284.66
2023-03-26T16:42:52.898Z,98285.44
2023-03-26T16:45:20.057Z,98286.34
2023-03-26T16:48:03.868Z,98282.41
2023-03-26T16:50:37.263Z,98285.09
2023-03-26T16:53:14.077Z,98297.03
2023-03-26T16:55:44.722Z,98290.94
2023-03-26T16:58:28.324Z,98289.06
2023-03-26T17:01:06.896Z,98306.03
2023-03-26T17:03:41.791Z,98310.69
2023-03-26T17:06:21.214Z,98306.28
2023-03-26T17:08:55.511Z,98310.00
2023-03-26T17:11:23.087Z,98310.38
2023-03-26T17:13:50.008Z,98311.94
2023-03-26T17:16:25.142Z,98316.84
2023-03-26T17:19:11.495Z,98315.34
2023-03-26T17:21:45.762Z,98308.97
2023-03-26T17:27:22.258Z,98324.56
2023-03-26T17:29:58.955Z,98315.34
2023-03-26T17:32:47.496Z,98315.75
2023-03-26T17:35:15.736Z,98323.19
2023-03-26T17:37:45.883Z,98329.94
2023-03-26T17:40:30.712Z,98327.22
2023-03-26T17:43:02.291Z,98330.13
2023-03-26T17:45:30.840Z,98332.41
2023-03-26T17:48:00.559Z,98327.97
2023-03-26T17:50:32.176Z,98328.00
2023-03-26T17:53:02.917Z,98338.38
2023-03-26T17:55:31.534Z,98337.16
2023-03-26T17:58:00.372Z,98337.97
2023-03-26T18:00:30.440Z,98336.84
2023-03-26T18:03:01.503Z,98337.47
2023-03-26T18:05:30.327Z,98342.75
2023-03-26T18:08:02.257Z,98340.78
2023-03-26T18:10:56.008Z,98344.16
2023-03-26T18:13:40.082Z,98344.47
2023-03-26T18:16:14.452Z,98345.34
2023-03-26T18:18:53.533Z,98343.41
2023-03-26T18:21:32.567Z,98349.75
2023-03-26T18:24:01.432Z,98345.75
2023-03-26T18:26:35.614Z,98352.25
2023-03-26T18:29:28.974Z,98349.72
2023-03-26T18:32:03.120Z,98352.63
2023-03-26T18:34:32.245Z,98347.88
2023-03-26T18:37:11.741Z,98345.41
2023-03-26T18:39:39.020Z,98343.91
2023-03-26T18:42:07.141Z,98346.69
2023-03-26T18:44:36.909Z,98350.94
2023-03-26T18:47:07.642Z,98349.88
2023-03-26T18:49:37.084Z,98347.53
2023-03-26T18:52:04.318Z,98347.75
2023-03-26T18:54:35.691Z,98349.66
2023-03-26T18:57:15.236Z,98345.50
2023-03-26T18:59:45.497Z,98344.78
2023-03-26T19:02:14.132Z,98347.25
2023-03-26T19:04:45.435Z,98343.63
2023-03-26T19:07:15.677Z,98344.41
2023-03-26T19:09:43.530Z,98345.97
2023-03-26T19:12:19.079Z,98340.81
2023-03-26T19:14:56.713Z,98342.44
2023-03-26T19:17:26.949Z,98342.28
2023-03-26T19:19:55.755Z,98347.25
2023-03-26T19:22:25.869Z,98348.03
2023-03-26T19:24:57.975Z,98351.03
2023-03-26T19:27:25.797Z,98349.72
2023-03-26T19:29:53.305Z,98345.25
2023-03-26T19:32:22.379Z,98356.19
2023-03-26T19:34:51.182Z,98342.44
2023-03-26T19:37:20.269Z,98350.22
2023-03-26T19:39:47.209Z,98340.53
2023-03-26T19:42:18.856Z,98344.97
2023-03-26T19:44:46.518Z,98332.84
2023-03-26T19:47:35.258Z,98337.41
2023-03-26T19:50:25.071Z,98335.63
2023-03-26T19:53:15.537Z,98338.09
2023-03-26T19:55:53.519Z,98344.53
2023-03-26T19:58:21.562Z,98340.50
2023-03-26T20:00:48.904Z,98339.88
2023-03-26T20:03:17.081Z,98343.28
2023-03-26T20:05:44.208Z,98341.63
2023-03-26T20:08:15.059Z,98333.81
2023-03-26T20:10:42.758Z,98332.91
2023-03-26T20:13:16.560Z,98340.09
2023-03-26T20:15:49.309Z,98341.88
2023-03-26T20:18:34.188Z,98344.56
2023-03-26T20:21:01.474Z,98342.06
2023-03-26T20:23:29.116Z,98341.13
2023-03-26T20:25:57.021Z,98343.69
2023-03-26T20:28:24.695Z,98345.47
2023-03-26T20:30:54.673Z,98347.88
2023-03-26T20:33:25.793Z,98338.09
2023-03-26T20:35:54.143Z,98346.94
2023-03-26T20:38:26.565Z,98349.38
2023-03-26T20:41:01.072Z,98344.13
2023-03-26T20:43:30.546Z,98338.03
2023-03-26T20:46:00.961Z,98340.66
2023-03-26T20:48:28.079Z,98346.81
2023-03-26T20:50:55.243Z,98350.38
2023-03-26T20:53:24.088Z,98346.94
2023-03-26T20:55:51.901Z,98352.38
2023-03-26T20:58:31.790Z,98358.59
2023-03-26T21:01:01.085Z,98347.38
2023-03-26T21:03:28.542Z,98352.63
2023-03-26T21:05:59.186Z,98356.31
2023-03-26T21:08:30.399Z,98350.34
2023-03-26T21:11:02.575Z,98358.34
2023-03-26T21:13:37.482Z,98352.31
2023-03-26T21:16:05.473Z,98356.69
2023-03-26T21:18:32.699Z,98350.47
2023-03-26T21:21:20.120Z,98355.72
2023-03-26T21:24:14.776Z,98350.53
2023-03-26T21:27:01.962Z,98355.59
2023-03-26T21:29:29.546Z,98356.44
2023-03-26T21:31:56.810Z,98352.97
2023-03-26T21:34:24.129Z,98350.16
2023-03-26T21:36:51.989Z,98348.63
2023-03-26T21:39:19.191Z,98350.41
2023-03-26T21:41:48.508Z,98348.69
2023-03-26T21:44:34.418Z,98338.34
2023-03-26T21:47:01.915Z,98344.53
2023-03-26T21:49:29.085Z,98345.38
2023-03-26T21:51:56.478Z,98342.03
2023-03-26T21:54:28.137Z,98331.47
2023-03-26T21:56:55.054Z,98332.81
2023-03-26T21:59:30.343Z,98336.81
2023-03-26T22:02:00.777Z,98339.00
2023-03-26T22:04:33.697Z,98329.81
2023-03-26T22:07:15.927Z,98327.66
2023-03-26T22:09:44.030Z,98334.03
2023-03-26T22:12:11.915Z,98331.94
2023-03-26T22:14:39.253Z,98338.66
2023-03-26T22:17:06.600Z,98335.06
2023-03-26T22:19:35.041Z,98336.03
2023-03-26T22:22:02.604Z,98340.31
2023-03-26T22:24:29.882Z,98339.38
2023-03-26T22:26:57.368Z,98336.88
2023-03-26T22:29:24.926Z,98345.84
2023-03-26T22:31:54.234Z,98338.31
2023-03-26T22:34:23.438Z,98343.91
2023-03-26T22:36:50.687Z,98351.28
2023-03-26T22:39:18.557Z,98340.28
2023-03-26T22:41:46.291Z,98336.28
2023-03-26T22:46:47.570Z,98331.75
2023-03-26T22:49:14.793Z,98339.16
2023-03-26T22:51:41.991Z,98339.56
2023-03-26T22:54:09.703Z,98342.69
2023-03-26T22:56:37.444Z,98337.25
2023-03-26T22:59:04.708Z,98340.66
2023-03-26T23:01:31.793Z,98336.09
2023-03-26T23:03:59.759Z,98342.78
2023-03-26T23:06:30.927Z,98344.25
2023-03-26T23:08:59.228Z,98336.91
2023-03-26T23:11:28.112Z,98333.88
2023-03-26T23:13:56.313Z,98337.81
2023-03-26T23:16:24.342Z,98339.06
2023-03-26T23:18:51.877Z,98330.72
2023-03-26T23:21:20.538Z,98339.78
2023-03-26T23:23:48.674Z,98332.19
2023-03-26T23:26:17.134Z,98333.22
2023-03-26T23:28:44.443Z,98329.97
2023-03-26T23:31:12.780Z,98338.38
2023-03-26T23:33:46.697Z,98330.31
2023-03-26T23:36:14.808Z,98333.72
2023-03-26T23:38:43.066Z,98333.00
2023-03-26T23:41:15.452Z,98326.97
2023-03-26T23:43:54.312Z,98328.91
2023-03-26T23:46:23.633Z,98325.69
2023-03-26T23:48:55.179Z,98326.69
2023-03-26T23:51:22.581Z,98326.94
2023-03-26T23:53:49.890Z,98325.47
2023-03-26T23:56:17.368Z,98329.19
2023-03-26T23:58:44.766Z,98330.41
